sensor_id;sensor_type;location;lat;lon;timestamp;temperature;humidity
46137;DHT22;31871;49.418;8.752;2022-12-18T00:02:14;-5.60;99.90
46137;DHT22;31871;49.418;8.752;2022-12-18T00:04:40;-5.60;99.90
46137;DHT22;31871;49.418;8.752;2022-12-18T00:07:05;-5.60;99.90
46137;DHT22;31871;49.418;8.752;2022-12-18T00:09:31;-5.70;99.90
46137;DHT22;31871;49.418;8.752;2022-12-18T00:11:56;-5.60;99.90
46137;DHT22;31871;49.418;8.752;2022-12-18T00:14:22;-5.50;99.90
46137;DHT22;31871;49.418;8.752;2022-12-18T00:16:47;-5.50;99.90
46137;DHT22;31871;49.418;8.752;2022-12-18T00:19:14;-5.60;99.90
46137;DHT22;31871;49.418;8.752;2022-12-18T00:21:41;-5.70;99.90
46137;DHT22;31871;49.418;8.752;2022-12-18T00:24:07;-5.70;99.90
46137;DHT22;31871;49.418;8.752;2022-12-18T00:26:35;-5.80;99.90
46137;DHT22;31871;49.418;8.752;2022-12-18T00:29:03;-5.80;99.90
46137;DHT22;31871;49.418;8.752;2022-12-18T00:31:30;-5.80;99.90
46137;DHT22;31871;49.418;8.752;2022-12-18T00:33:56;-5.80;99.90
46137;DHT22;31871;49.418;8.752;2022-12-18T00:36:28;-5.90;99.90
46137;DHT22;31871;49.418;8.752;2022-12-18T00:38:55;-5.80;99.90
46137;DHT22;31871;49.418;8.752;2022-12-18T00:41:21;-5.70;99.90
46137;DHT22;31871;49.418;8.752;2022-12-18T00:44:08;-5.80;99.90
46137;DHT22;31871;49.418;8.752;2022-12-18T00:46:34;-5.80;99.90
46137;DHT22;31871;49.418;8.752;2022-12-18T00:49:00;-5.80;99.90
46137;DHT22;31871;49.418;8.752;2022-12-18T00:51:26;-5.70;99.90
46137;DHT22;31871;49.418;8.752;2022-12-18T00:53:52;-5.70;99.90
46137;DHT22;31871;49.418;8.752;2022-12-18T00:56:17;-5.80;99.90
46137;DHT22;31871;49.418;8.752;2022-12-18T00:58:43;-5.80;99.90
46137;DHT22;31871;49.418;8.752;2022-12-18T01:01:08;-5.80;99.90
46137;DHT22;31871;49.418;8.752;2022-12-18T01:03:34;-5.80;99.90
46137;DHT22;31871;49.418;8.752;2022-12-18T01:06:05;-5.80;99.90
46137;DHT22;31871;49.418;8.752;2022-12-18T01:08:31;-5.80;99.90
46137;DHT22;31871;49.418;8.752;2022-12-18T01:10:56;-5.70;99.90
46137;DHT22;31871;49.418;8.752;2022-12-18T01:13:22;-5.70;99.90
46137;DHT22;31871;49.418;8.752;2022-12-18T01:15:49;-5.70;99.90
46137;DHT22;31871;49.418;8.752;2022-12-18T01:18:14;-5.70;99.90
46137;DHT22;31871;49.418;8.752;2022-12-18T01:20:40;-5.70;99.90
46137;DHT22;31871;49.418;8.752;2022-12-18T01:23:05;-5.70;99.90
46137;DHT22;31871;49.418;8.752;2022-12-18T01:25:31;-5.70;99.90
46137;DHT22;31871;49.418;8.752;2022-12-18T01:27:57;-5.70;99.90
46137;DHT22;31871;49.418;8.752;2022-12-18T01:30:22;-5.70;99.90
46137;DHT22;31871;49.418;8.752;2022-12-18T01:32:48;-5.70;99.90
46137;DHT22;31871;49.418;8.752;2022-12-18T01:35:13;-5.80;99.90
46137;DHT22;31871;49.418;8.752;2022-12-18T01:37:39;-5.80;99.90
46137;DHT22;31871;49.418;8.752;2022-12-18T01:40:05;-5.80;99.90
46137;DHT22;31871;49.418;8.752;2022-12-18T01:42:30;-5.80;99.90
46137;DHT22;31871;49.418;8.752;2022-12-18T01:49:58;-5.70;99.90
46137;DHT22;31871;49.418;8.752;2022-12-18T01:52:27;-5.70;99.90
46137;DHT22;31871;49.418;8.752;2022-12-18T01:54:54;-5.50;99.90
46137;DHT22;31871;49.418;8.752;2022-12-18T01:57:22;-5.50;99.90
46137;DHT22;31871;49.418;8.752;2022-12-18T01:59:52;-5.60;99.90
46137;DHT22;31871;49.418;8.752;2022-12-18T02:02:18;-5.60;99.90
46137;DHT22;31871;49.418;8.752;2022-12-18T02:04:45;-5.60;99.90
46137;DHT22;31871;49.418;8.752;2022-12-18T02:12:21;-5.80;99.90
46137;DHT22;31871;49.418;8.752;2022-12-18T02:14:55;-5.90;99.90
46137;DHT22;31871;49.418;8.752;2022-12-18T02:17:34;-5.90;99.90
46137;DHT22;31871;49.418;8.752;2022-12-18T02:20:18;-5.90;99.90
46137;DHT22;31871;49.418;8.752;2022-12-18T02:25:51;-5.70;99.90
46137;DHT22;31871;49.418;8.752;2022-12-18T02:28:19;-5.70;99.90
46137;DHT22;31871;49.418;8.752;2022-12-18T02:30:47;-5.80;99.90
46137;DHT22;31871;49.418;8.752;2022-12-18T02:33:15;-5.80;99.90
46137;DHT22;31871;49.418;8.752;2022-12-18T02:35:42;-5.90;99.90
46137;DHT22;31871;49.418;8.752;2022-12-18T02:38:09;-5.80;99.90
46137;DHT22;31871;49.418;8.752;2022-12-18T02:40:36;-5.80;99.90
46137;DHT22;31871;49.418;8.752;2022-12-18T02:43:07;-5.80;99.90
46137;DHT22;31871;49.418;8.752;2022-12-18T02:45:32;-5.70;99.90
46137;DHT22;31871;49.418;8.752;2022-12-18T02:47:58;-5.80;99.90
46137;DHT22;31871;49.418;8.752;2022-12-18T02:50:59;-5.80;99.90
46137;DHT22;31871;49.418;8.752;2022-12-18T02:53:51;-5.80;99.90
46137;DHT22;31871;49.418;8.752;2022-12-18T02:56:36;-5.80;99.90
46137;DHT22;31871;49.418;8.752;2022-12-18T02:59:13;-5.90;99.90
46137;DHT22;31871;49.418;8.752;2022-12-18T03:04:40;-5.90;99.90
46137;DHT22;31871;49.418;8.752;2022-12-18T03:07:16;-6.00;99.90
46137;DHT22;31871;49.418;8.752;2022-12-18T03:09:47;-6.00;99.90
46137;DHT22;31871;49.418;8.752;2022-12-18T03:12:24;-6.00;99.90
46137;DHT22;31871;49.418;8.752;2022-12-18T03:18:01;-6.00;99.90
46137;DHT22;31871;49.418;8.752;2022-12-18T03:20:29;-6.00;99.90
46137;DHT22;31871;49.418;8.752;2022-12-18T03:23:02;-5.90;99.90
46137;DHT22;31871;49.418;8.752;2022-12-18T03:25:30;-5.80;99.90
46137;DHT22;31871;49.418;8.752;2022-12-18T03:27:59;-5.80;99.90
46137;DHT22;31871;49.418;8.752;2022-12-18T03:30:26;-5.80;99.90
46137;DHT22;31871;49.418;8.752;2022-12-18T03:33:07;-5.70;99.90
46137;DHT22;31871;49.418;8.752;2022-12-18T03:35:36;-5.60;99.90
46137;DHT22;31871;49.418;8.752;2022-12-18T03:38:02;-5.50;99.90
46137;DHT22;31871;49.418;8.752;2022-12-18T03:46:15;-5.70;99.90
46137;DHT22;31871;49.418;8.752;2022-12-18T03:48:46;-5.80;99.90
46137;DHT22;31871;49.418;8.752;2022-12-18T03:51:48;-5.80;99.90
46137;DHT22;31871;49.418;8.752;2022-12-18T03:54:12;-5.80;99.90
46137;DHT22;31871;49.418;8.752;2022-12-18T03:56:47;-5.80;99.90
46137;DHT22;31871;49.418;8.752;2022-12-18T03:59:15;-5.90;99.90
46137;DHT22;31871;49.418;8.752;2022-12-18T04:01:47;-5.90;99.90
46137;DHT22;31871;49.418;8.752;2022-12-18T04:04:14;-6.00;99.90
46137;DHT22;31871;49.418;8.752;2022-12-18T04:06:41;-5.90;99.90
46137;DHT22;31871;49.418;8.752;2022-12-18T04:09:07;-5.90;99.90
46137;DHT22;31871;49.418;8.752;2022-12-18T04:11:33;-5.90;99.90
46137;DHT22;31871;49.418;8.752;2022-12-18T04:13:58;-5.90;99.90
46137;DHT22;31871;49.418;8.752;2022-12-18T04:16:25;-5.90;99.90
46137;DHT22;31871;49.418;8.752;2022-12-18T04:18:51;-5.90;99.90
46137;DHT22;31871;49.418;8.752;2022-12-18T04:21:17;-5.90;99.90
46137;DHT22;31871;49.418;8.752;2022-12-18T04:23:42;-5.90;99.90
46137;DHT22;31871;49.418;8.752;2022-12-18T04:26:08;-6.00;99.90
46137;DHT22;31871;49.418;8.752;2022-12-18T04:28:33;-5.90;99.90
46137;DHT22;31871;49.418;8.752;2022-12-18T04:30:59;-5.90;99.90
46137;DHT22;31871;49.418;8.752;2022-12-18T04:33:24;-5.80;99.90
46137;DHT22;31871;49.418;8.752;2022-12-18T04:35:50;-5.80;99.90
46137;DHT22;31871;49.418;8.752;2022-12-18T04:38:16;-5.90;99.90
46137;DHT22;31871;49.418;8.752;2022-12-18T04:40:41;-5.90;99.90
46137;DHT22;31871;49.418;8.752;2022-12-18T04:43:07;-5.90;99.90
46137;DHT22;31871;49.418;8.752;2022-12-18T04:45:33;-5.90;99.90
46137;DHT22;31871;49.418;8.752;2022-12-18T04:48:00;-5.90;99.90
46137;DHT22;31871;49.418;8.752;2022-12-18T04:50:26;-5.90;99.90
46137;DHT22;31871;49.418;8.752;2022-12-18T04:52:52;-5.90;99.90
46137;DHT22;31871;49.418;8.752;2022-12-18T04:55:17;-5.90;99.90
46137;DHT22;31871;49.418;8.752;2022-12-18T04:57:43;-5.90;99.90
46137;DHT22;31871;49.418;8.752;2022-12-18T05:00:09;-5.90;99.90
46137;DHT22;31871;49.418;8.752;2022-12-18T05:02:34;-5.90;99.90
46137;DHT22;31871;49.418;8.752;2022-12-18T05:05:00;-5.90;99.90
46137;DHT22;31871;49.418;8.752;2022-12-18T05:07:26;-5.90;99.90
46137;DHT22;31871;49.418;8.752;2022-12-18T05:09:51;-5.90;99.90
46137;DHT22;31871;49.418;8.752;2022-12-18T05:12:17;-5.80;99.90
46137;DHT22;31871;49.418;8.752;2022-12-18T05:14:42;-5.90;99.90
46137;DHT22;31871;49.418;8.752;2022-12-18T05:17:08;-5.90;99.90
46137;DHT22;31871;49.418;8.752;2022-12-18T05:19:33;-5.80;99.90
46137;DHT22;31871;49.418;8.752;2022-12-18T05:21:59;-5.80;99.90
46137;DHT22;31871;49.418;8.752;2022-12-18T05:24:24;-5.90;99.90
46137;DHT22;31871;49.418;8.752;2022-12-18T05:26:50;-5.80;99.90
46137;DHT22;31871;49.418;8.752;2022-12-18T05:29:16;-5.90;99.90
46137;DHT22;31871;49.418;8.752;2022-12-18T05:31:41;-5.80;99.90
46137;DHT22;31871;49.418;8.752;2022-12-18T05:34:07;-5.80;99.90
46137;DHT22;31871;49.418;8.752;2022-12-18T05:36:32;-5.90;99.90
46137;DHT22;31871;49.418;8.752;2022-12-18T05:38:58;-5.90;99.90
46137;DHT22;31871;49.418;8.752;2022-12-18T05:41:23;-5.90;99.90
46137;DHT22;31871;49.418;8.752;2022-12-18T05:43:49;-5.90;99.90
46137;DHT22;31871;49.418;8.752;2022-12-18T05:46:17;-5.90;99.90
46137;DHT22;31871;49.418;8.752;2022-12-18T05:48:43;-5.90;99.90
46137;DHT22;31871;49.418;8.752;2022-12-18T05:51:12;-5.80;99.90
46137;DHT22;31871;49.418;8.752;2022-12-18T05:53:38;-5.80;99.90
46137;DHT22;31871;49.418;8.752;2022-12-18T05:56:06;-5.80;99.90
46137;DHT22;31871;49.418;8.752;2022-12-18T05:58:33;-5.80;99.90
46137;DHT22;31871;49.418;8.752;2022-12-18T06:01:07;-5.80;99.90
46137;DHT22;31871;49.418;8.752;2022-12-18T06:03:33;-5.70;99.90
46137;DHT22;31871;49.418;8.752;2022-12-18T06:05:58;-5.70;99.90
46137;DHT22;31871;49.418;8.752;2022-12-18T06:08:24;-5.60;99.90
46137;DHT22;31871;49.418;8.752;2022-12-18T06:10:51;-5.50;99.90
46137;DHT22;31871;49.418;8.752;2022-12-18T06:13:18;-5.50;99.90
46137;DHT22;31871;49.418;8.752;2022-12-18T06:15:44;-5.40;99.90
46137;DHT22;31871;49.418;8.752;2022-12-18T06:18:09;-5.40;99.90
46137;DHT22;31871;49.418;8.752;2022-12-18T06:20:35;-5.40;99.90
46137;DHT22;31871;49.418;8.752;2022-12-18T06:23:02;-5.40;99.90
46137;DHT22;31871;49.418;8.752;2022-12-18T06:25:28;-5.40;99.90
46137;DHT22;31871;49.418;8.752;2022-12-18T06:27:53;-5.40;99.90
46137;DHT22;31871;49.418;8.752;2022-12-18T06:30:19;-5.30;99.90
46137;DHT22;31871;49.418;8.752;2022-12-18T06:32:45;-5.20;99.90
46137;DHT22;31871;49.418;8.752;2022-12-18T06:35:11;-5.20;99.90
46137;DHT22;31871;49.418;8.752;2022-12-18T06:37:36;-5.20;99.90
46137;DHT22;31871;49.418;8.752;2022-12-18T06:40:02;-5.30;99.90
46137;DHT22;31871;49.418;8.752;2022-12-18T06:42:28;-5.20;99.90
46137;DHT22;31871;49.418;8.752;2022-12-18T06:44:54;-5.20;99.90
46137;DHT22;31871;49.418;8.752;2022-12-18T06:47:19;-5.20;99.90
46137;DHT22;31871;49.418;8.752;2022-12-18T06:49:45;-5.20;99.90
46137;DHT22;31871;49.418;8.752;2022-12-18T06:52:10;-5.20;99.90
46137;DHT22;31871;49.418;8.752;2022-12-18T06:54:36;-5.10;99.90
46137;DHT22;31871;49.418;8.752;2022-12-18T06:57:01;-5.20;99.90
46137;DHT22;31871;49.418;8.752;2022-12-18T06:59:27;-5.20;99.90
46137;DHT22;31871;49.418;8.752;2022-12-18T07:01:53;-5.10;99.90
46137;DHT22;31871;49.418;8.752;2022-12-18T07:04:18;-5.10;99.90
46137;DHT22;31871;49.418;8.752;2022-12-18T07:06:44;-5.10;99.90
46137;DHT22;31871;49.418;8.752;2022-12-18T07:09:09;-5.10;99.90
46137;DHT22;31871;49.418;8.752;2022-12-18T07:11:35;-5.20;99.90
46137;DHT22;31871;49.418;8.752;2022-12-18T07:14:00;-5.20;99.90
46137;DHT22;31871;49.418;8.752;2022-12-18T07:16:26;-5.10;99.90
46137;DHT22;31871;49.418;8.752;2022-12-18T07:18:54;-5.10;99.90
46137;DHT22;31871;49.418;8.752;2022-12-18T07:21:22;-5.20;99.90
46137;DHT22;31871;49.418;8.752;2022-12-18T07:23:48;-5.20;99.90
46137;DHT22;31871;49.418;8.752;2022-12-18T07:26:16;-5.20;99.90
46137;DHT22;31871;49.418;8.752;2022-12-18T07:28:42;-5.30;99.90
46137;DHT22;31871;49.418;8.752;2022-12-18T07:31:10;-5.20;99.90
46137;DHT22;31871;49.418;8.752;2022-12-18T07:33:36;-5.20;99.90
46137;DHT22;31871;49.418;8.752;2022-12-18T07:36:03;-5.10;99.90
46137;DHT22;31871;49.418;8.752;2022-12-18T07:38:30;-5.10;99.90
46137;DHT22;31871;49.418;8.752;2022-12-18T07:41:07;-5.20;99.90
46137;DHT22;31871;49.418;8.752;2022-12-18T07:43:33;-5.20;99.90
46137;DHT22;31871;49.418;8.752;2022-12-18T07:45:59;-5.20;99.90
46137;DHT22;31871;49.418;8.752;2022-12-18T07:48:25;-5.30;99.90
46137;DHT22;31871;49.418;8.752;2022-12-18T07:50:50;-5.30;99.90
46137;DHT22;31871;49.418;8.752;2022-12-18T07:53:16;-5.30;99.90
46137;DHT22;31871;49.418;8.752;2022-12-18T07:55:42;-5.30;99.90
46137;DHT22;31871;49.418;8.752;2022-12-18T07:58:08;-5.30;99.90
46137;DHT22;31871;49.418;8.752;2022-12-18T08:00:34;-5.30;99.90
46137;DHT22;31871;49.418;8.752;2022-12-18T08:03:00;-5.30;99.90
46137;DHT22;31871;49.418;8.752;2022-12-18T08:05:26;-5.30;99.90
46137;DHT22;31871;49.418;8.752;2022-12-18T08:07:52;-5.30;99.90
46137;DHT22;31871;49.418;8.752;2022-12-18T08:10:18;-5.30;99.90
46137;DHT22;31871;49.418;8.752;2022-12-18T08:12:44;-5.30;99.90
46137;DHT22;31871;49.418;8.752;2022-12-18T08:15:09;-5.30;99.90
46137;DHT22;31871;49.418;8.752;2022-12-18T08:17:35;-5.30;99.90
46137;DHT22;31871;49.418;8.752;2022-12-18T08:20:00;-5.30;99.90
46137;DHT22;31871;49.418;8.752;2022-12-18T08:22:26;-5.30;99.90
46137;DHT22;31871;49.418;8.752;2022-12-18T08:24:51;-5.30;99.90
46137;DHT22;31871;49.418;8.752;2022-12-18T08:27:17;-5.30;99.90
46137;DHT22;31871;49.418;8.752;2022-12-18T08:29:43;-5.30;99.90
46137;DHT22;31871;49.418;8.752;2022-12-18T08:32:08;-5.20;99.90
46137;DHT22;31871;49.418;8.752;2022-12-18T08:34:34;-5.20;99.90
46137;DHT22;31871;49.418;8.752;2022-12-18T08:36:59;-5.10;99.90
46137;DHT22;31871;49.418;8.752;2022-12-18T08:39:25;-5.10;99.90
46137;DHT22;31871;49.418;8.752;2022-12-18T08:41:50;-5.00;99.90
46137;DHT22;31871;49.418;8.752;2022-12-18T08:44:34;-5.00;99.90
46137;DHT22;31871;49.418;8.752;2022-12-18T08:47:03;-5.00;99.90
46137;DHT22;31871;49.418;8.752;2022-12-18T08:49:29;-5.00;99.90
46137;DHT22;31871;49.418;8.752;2022-12-18T08:51:55;-5.00;99.90
46137;DHT22;31871;49.418;8.752;2022-12-18T08:54:23;-4.90;99.90
46137;DHT22;31871;49.418;8.752;2022-12-18T08:56:48;-4.80;99.90
46137;DHT22;31871;49.418;8.752;2022-12-18T08:59:15;-4.80;99.90
46137;DHT22;31871;49.418;8.752;2022-12-18T09:01:41;-4.70;99.90
46137;DHT22;31871;49.418;8.752;2022-12-18T09:04:09;-4.70;99.90
46137;DHT22;31871;49.418;8.752;2022-12-18T09:06:35;-4.60;99.90
46137;DHT22;31871;49.418;8.752;2022-12-18T09:09:01;-4.60;99.90
46137;DHT22;31871;49.418;8.752;2022-12-18T09:11:27;-4.50;99.90
46137;DHT22;31871;49.418;8.752;2022-12-18T09:13:54;-4.50;99.90
46137;DHT22;31871;49.418;8.752;2022-12-18T09:16:21;-4.50;99.90
46137;DHT22;31871;49.418;8.752;2022-12-18T09:18:48;-4.40;99.90
46137;DHT22;31871;49.418;8.752;2022-12-18T09:21:17;-4.40;99.90
46137;DHT22;31871;49.418;8.752;2022-12-18T09:23:43;-4.40;99.90
46137;DHT22;31871;49.418;8.752;2022-12-18T09:26:09;-4.30;99.90
46137;DHT22;31871;49.418;8.752;2022-12-18T09:28:35;-4.30;99.90
46137;DHT22;31871;49.418;8.752;2022-12-18T09:31:08;-4.20;99.90
46137;DHT22;31871;49.418;8.752;2022-12-18T09:33:35;-4.10;99.90
46137;DHT22;31871;49.418;8.752;2022-12-18T09:36:03;-4.20;99.90
46137;DHT22;31871;49.418;8.752;2022-12-18T09:38:29;-4.10;99.90
46137;DHT22;31871;49.418;8.752;2022-12-18T09:41:03;-4.10;99.90
46137;DHT22;31871;49.418;8.752;2022-12-18T09:43:36;-4.00;99.90
46137;DHT22;31871;49.418;8.752;2022-12-18T09:46:06;-4.00;99.90
46137;DHT22;31871;49.418;8.752;2022-12-18T09:48:36;-3.90;99.90
46137;DHT22;31871;49.418;8.752;2022-12-18T09:51:08;-3.80;99.90
46137;DHT22;31871;49.418;8.752;2022-12-18T09:53:35;-3.80;99.90
46137;DHT22;31871;49.418;8.752;2022-12-18T09:56:04;-3.70;99.90
46137;DHT22;31871;49.418;8.752;2022-12-18T09:58:41;-3.70;99.90
46137;DHT22;31871;49.418;8.752;2022-12-18T10:01:21;-3.70;99.90
46137;DHT22;31871;49.418;8.752;2022-12-18T10:03:48;-3.70;99.90
46137;DHT22;31871;49.418;8.752;2022-12-18T10:14:30;-3.00;99.90
46137;DHT22;31871;49.418;8.752;2022-12-18T10:22:57;-2.70;99.90
46137;DHT22;31871;49.418;8.752;2022-12-18T10:25:31;-2.60;99.90
46137;DHT22;31871;49.418;8.752;2022-12-18T10:28:09;-2.40;99.90
46137;DHT22;31871;49.418;8.752;2022-12-18T10:30:36;-2.30;99.90
46137;DHT22;31871;49.418;8.752;2022-12-18T10:33:03;-2.20;99.90
46137;DHT22;31871;49.418;8.752;2022-12-18T10:35:29;-2.00;99.90
46137;DHT22;31871;49.418;8.752;2022-12-18T10:40:58;-1.90;99.90
46137;DHT22;31871;49.418;8.752;2022-12-18T10:43:29;-1.70;99.90
46137;DHT22;31871;49.418;8.752;2022-12-18T10:48:55;-1.70;99.90
46137;DHT22;31871;49.418;8.752;2022-12-18T10:51:35;-1.80;99.90
46137;DHT22;31871;49.418;8.752;2022-12-18T10:54:05;-1.80;99.90
46137;DHT22;31871;49.418;8.752;2022-12-18T10:56:34;-1.70;99.90
46137;DHT22;31871;49.418;8.752;2022-12-18T10:59:08;-1.60;99.90
46137;DHT22;31871;49.418;8.752;2022-12-18T11:01:58;-1.60;99.90
46137;DHT22;31871;49.418;8.752;2022-12-18T11:04:27;-1.50;99.90
46137;DHT22;31871;49.418;8.752;2022-12-18T11:06:54;-1.40;99.90
46137;DHT22;31871;49.418;8.752;2022-12-18T11:09:26;-1.30;99.90
46137;DHT22;31871;49.418;8.752;2022-12-18T11:11:57;-1.20;99.90
46137;DHT22;31871;49.418;8.752;2022-12-18T11:14:30;-1.20;99.90
46137;DHT22;31871;49.418;8.752;2022-12-18T11:16:58;-1.20;99.90
46137;DHT22;31871;49.418;8.752;2022-12-18T11:21:56;-0.90;99.90
46137;DHT22;31871;49.418;8.752;2022-12-18T11:26:55;-0.70;99.90
46137;DHT22;31871;49.418;8.752;2022-12-18T11:34:42;-0.60;99.90
46137;DHT22;31871;49.418;8.752;2022-12-18T11:37:11;-0.60;99.90
46137;DHT22;31871;49.418;8.752;2022-12-18T11:39:42;-0.60;99.90
46137;DHT22;31871;49.418;8.752;2022-12-18T11:45:17;-0.60;99.90
46137;DHT22;31871;49.418;8.752;2022-12-18T11:52:51;-0.50;99.90
46137;DHT22;31871;49.418;8.752;2022-12-18T11:58:24;-0.50;99.90
46137;DHT22;31871;49.418;8.752;2022-12-18T12:12:52;-0.50;99.90
46137;DHT22;31871;49.418;8.752;2022-12-18T12:15:38;-0.50;99.90
46137;DHT22;31871;49.418;8.752;2022-12-18T12:18:28;-0.40;99.90
46137;DHT22;31871;49.418;8.752;2022-12-18T12:26:06;-0.50;99.90
46137;DHT22;31871;49.418;8.752;2022-12-18T12:29:28;-0.60;99.90
46137;DHT22;31871;49.418;8.752;2022-12-18T12:31:41;-0.60;99.90
46137;DHT22;31871;49.418;8.752;2022-12-18T12:34:22;-0.60;99.90
46137;DHT22;31871;49.418;8.752;2022-12-18T12:36:52;-0.60;99.90
46137;DHT22;31871;49.418;8.752;2022-12-18T12:39:24;-0.60;99.90
46137;DHT22;31871;49.418;8.752;2022-12-18T12:41:52;-0.60;99.90
46137;DHT22;31871;49.418;8.752;2022-12-18T12:44:44;-0.60;99.90
46137;DHT22;31871;49.418;8.752;2022-12-18T12:47:16;-0.60;99.90
46137;DHT22;31871;49.418;8.752;2022-12-18T12:49:43;-0.60;99.90
46137;DHT22;31871;49.418;8.752;2022-12-18T12:52:16;-0.60;99.90
46137;DHT22;31871;49.418;8.752;2022-12-18T12:54:43;-0.70;99.90
46137;DHT22;31871;49.418;8.752;2022-12-18T13:00:03;-0.70;99.90
46137;DHT22;31871;49.418;8.752;2022-12-18T13:08:06;-0.80;99.90
46137;DHT22;31871;49.418;8.752;2022-12-18T13:10:35;-0.80;99.90
46137;DHT22;31871;49.418;8.752;2022-12-18T13:13:02;-0.90;99.90
46137;DHT22;31871;49.418;8.752;2022-12-18T13:18:14;-0.90;99.90
46137;DHT22;31871;49.418;8.752;2022-12-18T13:23:39;-0.90;99.90
46137;DHT22;31871;49.418;8.752;2022-12-18T13:31:13;-0.90;99.90
46137;DHT22;31871;49.418;8.752;2022-12-18T13:33:46;-0.90;99.90
46137;DHT22;31871;49.418;8.752;2022-12-18T13:41:42;-1.00;99.90
46137;DHT22;31871;49.418;8.752;2022-12-18T13:44:13;-1.00;99.90
46137;DHT22;31871;49.418;8.752;2022-12-18T13:46:50;-1.00;99.90
46137;DHT22;31871;49.418;8.752;2022-12-18T13:49:37;-1.00;99.90
46137;DHT22;31871;49.418;8.752;2022-12-18T13:52:21;-1.00;99.90
46137;DHT22;31871;49.418;8.752;2022-12-18T13:54:49;-1.00;99.90
46137;DHT22;31871;49.418;8.752;2022-12-18T13:57:37;-0.90;99.90
46137;DHT22;31871;49.418;8.752;2022-12-18T14:00:26;-0.90;99.90
46137;DHT22;31871;49.418;8.752;2022-12-18T14:02:54;-0.90;99.90
46137;DHT22;31871;49.418;8.752;2022-12-18T14:05:29;-0.90;99.90
46137;DHT22;31871;49.418;8.752;2022-12-18T14:07:58;-0.90;99.90
46137;DHT22;31871;49.418;8.752;2022-12-18T14:10:25;-0.90;99.90
46137;DHT22;31871;49.418;8.752;2022-12-18T14:12:51;-0.90;99.90
46137;DHT22;31871;49.418;8.752;2022-12-18T14:20:43;-0.90;99.90
46137;DHT22;31871;49.418;8.752;2022-12-18T14:23:29;-0.90;99.90
46137;DHT22;31871;49.418;8.752;2022-12-18T14:25:55;-0.90;99.90
46137;DHT22;31871;49.418;8.752;2022-12-18T14:28:21;-0.90;99.90
46137;DHT22;31871;49.418;8.752;2022-12-18T14:30:50;-0.80;99.90
46137;DHT22;31871;49.418;8.752;2022-12-18T14:33:17;-0.90;99.90
46137;DHT22;31871;49.418;8.752;2022-12-18T14:36:01;-0.80;99.90
46137;DHT22;31871;49.418;8.752;2022-12-18T14:38:31;-0.90;99.90
46137;DHT22;31871;49.418;8.752;2022-12-18T14:43:29;-0.90;99.90
46137;DHT22;31871;49.418;8.752;2022-12-18T14:45:55;-0.90;99.90
46137;DHT22;31871;49.418;8.752;2022-12-18T14:51:01;-1.00;99.90
46137;DHT22;31871;49.418;8.752;2022-12-18T14:56:22;-0.90;99.90
46137;DHT22;31871;49.418;8.752;2022-12-18T15:01:36;-1.00;99.90
46137;DHT22;31871;49.418;8.752;2022-12-18T15:04:03;-1.00;99.90
46137;DHT22;31871;49.418;8.752;2022-12-18T15:08:59;-1.00;99.90
46137;DHT22;31871;49.418;8.752;2022-12-18T15:11:55;-1.00;99.90
46137;DHT22;31871;49.418;8.752;2022-12-18T15:16:56;-1.10;99.90
46137;DHT22;31871;49.418;8.752;2022-12-18T15:19:31;-1.10;99.90
46137;DHT22;31871;49.418;8.752;2022-12-18T15:21:57;-1.20;99.90
46137;DHT22;31871;49.418;8.752;2022-12-18T15:24:30;-1.10;99.90
46137;DHT22;31871;49.418;8.752;2022-12-18T15:26:56;-1.10;99.90
46137;DHT22;31871;49.418;8.752;2022-12-18T15:29:22;-1.20;99.90
46137;DHT22;31871;49.418;8.752;2022-12-18T15:32:05;-1.20;99.90
46137;DHT22;31871;49.418;8.752;2022-12-18T15:34:32;-1.20;99.90
46137;DHT22;31871;49.418;8.752;2022-12-18T15:36:59;-1.20;99.90
46137;DHT22;31871;49.418;8.752;2022-12-18T15:39:25;-1.10;99.90
46137;DHT22;31871;49.418;8.752;2022-12-18T15:41:51;-1.20;99.90
46137;DHT22;31871;49.418;8.752;2022-12-18T15:44:43;-1.20;99.90
46137;DHT22;31871;49.418;8.752;2022-12-18T15:47:11;-1.20;99.90
46137;DHT22;31871;49.418;8.752;2022-12-18T15:49:37;-1.20;99.90
46137;DHT22;31871;49.418;8.752;2022-12-18T15:52:03;-1.20;99.90
46137;DHT22;31871;49.418;8.752;2022-12-18T15:54:29;-1.30;99.90
46137;DHT22;31871;49.418;8.752;2022-12-18T15:57:13;-1.30;99.90
46137;DHT22;31871;49.418;8.752;2022-12-18T15:59:48;-1.30;99.90
46137;DHT22;31871;49.418;8.752;2022-12-18T16:02:16;-1.30;99.90
46137;DHT22;31871;49.418;8.752;2022-12-18T16:04:42;-1.20;99.90
46137;DHT22;31871;49.418;8.752;2022-12-18T16:07:08;-1.20;99.90
46137;DHT22;31871;49.418;8.752;2022-12-18T16:09:34;-1.20;99.90
46137;DHT22;31871;49.418;8.752;2022-12-18T16:12:00;-1.20;99.90
46137;DHT22;31871;49.418;8.752;2022-12-18T16:14:30;-1.20;99.90
46137;DHT22;31871;49.418;8.752;2022-12-18T16:16:58;-1.20;99.90
46137;DHT22;31871;49.418;8.752;2022-12-18T16:19:25;-1.20;99.90
46137;DHT22;31871;49.418;8.752;2022-12-18T16:21:52;-1.20;99.90
46137;DHT22;31871;49.418;8.752;2022-12-18T16:24:20;-1.10;99.90
46137;DHT22;31871;49.418;8.752;2022-12-18T16:26:49;-1.10;99.90
46137;DHT22;31871;49.418;8.752;2022-12-18T16:29:17;-1.10;99.90
46137;DHT22;31871;49.418;8.752;2022-12-18T16:31:42;-1.10;99.90
46137;DHT22;31871;49.418;8.752;2022-12-18T16:34:23;-1.10;99.90
46137;DHT22;31871;49.418;8.752;2022-12-18T16:36:51;-1.00;99.90
46137;DHT22;31871;49.418;8.752;2022-12-18T16:39:19;-1.10;99.90
46137;DHT22;31871;49.418;8.752;2022-12-18T16:41:45;-1.10;99.90
46137;DHT22;31871;49.418;8.752;2022-12-18T16:44:11;-1.20;99.90
46137;DHT22;31871;49.418;8.752;2022-12-18T16:46:37;-1.20;99.90
46137;DHT22;31871;49.418;8.752;2022-12-18T16:49:03;-1.20;99.90
46137;DHT22;31871;49.418;8.752;2022-12-18T16:51:29;-1.20;99.90
46137;DHT22;31871;49.418;8.752;2022-12-18T16:53:55;-1.20;99.90
46137;DHT22;31871;49.418;8.752;2022-12-18T16:56:22;-1.20;99.90
46137;DHT22;31871;49.418;8.752;2022-12-18T16:58:52;-1.20;99.90
46137;DHT22;31871;49.418;8.752;2022-12-18T17:01:18;-1.20;99.90
46137;DHT22;31871;49.418;8.752;2022-12-18T17:03:44;-1.20;99.90
46137;DHT22;31871;49.418;8.752;2022-12-18T17:06:09;-1.20;99.90
46137;DHT22;31871;49.418;8.752;2022-12-18T17:08:35;-1.20;99.90
46137;DHT22;31871;49.418;8.752;2022-12-18T17:11:05;-1.20;99.90
46137;DHT22;31871;49.418;8.752;2022-12-18T17:13:31;-1.20;99.90
46137;DHT22;31871;49.418;8.752;2022-12-18T17:16:04;-1.20;99.90
46137;DHT22;31871;49.418;8.752;2022-12-18T17:18:31;-1.20;99.90
46137;DHT22;31871;49.418;8.752;2022-12-18T17:21:01;-1.20;99.90
46137;DHT22;31871;49.418;8.752;2022-12-18T17:23:40;-1.20;99.90
46137;DHT22;31871;49.418;8.752;2022-12-18T17:26:06;-1.20;99.90
46137;DHT22;31871;49.418;8.752;2022-12-18T17:28:33;-1.20;99.90
46137;DHT22;31871;49.418;8.752;2022-12-18T17:30:59;-1.20;99.90
46137;DHT22;31871;49.418;8.752;2022-12-18T17:33:26;-1.20;99.90
46137;DHT22;31871;49.418;8.752;2022-12-18T17:35:52;-1.20;99.90
46137;DHT22;31871;49.418;8.752;2022-12-18T17:38:17;-1.20;99.90
46137;DHT22;31871;49.418;8.752;2022-12-18T17:40:43;-1.20;99.90
46137;DHT22;31871;49.418;8.752;2022-12-18T17:43:09;-1.20;99.90
46137;DHT22;31871;49.418;8.752;2022-12-18T17:45:36;-1.20;99.90
46137;DHT22;31871;49.418;8.752;2022-12-18T17:48:03;-1.10;99.90
46137;DHT22;31871;49.418;8.752;2022-12-18T17:50:29;-1.10;99.90